createdAt,value
2023-03-21T00:00:56.548Z,97470.23
2023-03-21T00:03:25.454Z,97466.08
2023-03-21T00:05:54.264Z,97465.20
2023-03-21T00:08:24.954Z,97460.64
2023-03-21T00:10:58.498Z,97463.41
2023-03-21T00:13:32.602Z,97461.98
2023-03-21T00:16:13.662Z,97461.91
2023-03-21T00:18:52.637Z,97459.40
2023-03-21T00:24:16.658Z,97453.20
2023-03-21T00:26:45.270Z,97451.79
2023-03-21T00:29:13.317Z,97450.48
2023-03-21T00:31:41.369Z,97450.58
2023-03-21T00:36:38.904Z,97447.83
2023-03-21T00:39:08.803Z,97448.30
2023-03-21T00:41:43.011Z,97450.36
2023-03-21T00:44:16.091Z,97453.45
2023-03-21T00:46:57.322Z,97455.31
2023-03-21T00:49:34.174Z,97455.63
2023-03-21T00:52:34.416Z,97452.40
2023-03-21T00:54:55.566Z,97449.90
2023-03-21T00:57:37.479Z,97450.19
2023-03-21T01:00:10.793Z,97448.35
2023-03-21T01:02:43.417Z,97445.97
2023-03-21T01:05:12.070Z,97443.90
2023-03-21T01:07:39.986Z,97442.49
2023-03-21T01:10:08.572Z,97443.70
2023-03-21T01:12:37.125Z,97446.95
2023-03-21T01:15:05.670Z,97447.97
2023-03-21T01:17:33.639Z,97445.27
2023-03-21T01:20:01.610Z,97440.65
2023-03-21T01:22:29.660Z,97441.52
2023-03-21T01:25:08.795Z,97436.77
2023-03-21T01:27:46.188Z,97430.80
2023-03-21T01:30:21.562Z,97428.04
2023-03-21T01:32:51.399Z,97423.16
2023-03-21T01:35:19.719Z,97420.45
2023-03-21T01:37:48.900Z,97423.27
2023-03-21T01:40:20.046Z,97421.50
2023-03-21T01:42:51.459Z,97419.51
2023-03-21T01:45:59.289Z,97414.88
2023-03-21T01:48:44.104Z,97413.02
2023-03-21T01:51:13.562Z,97413.13
2023-03-21T01:53:56.117Z,97412.45
2023-03-21T01:56:32.132Z,97411.23
2023-03-21T01:59:14.257Z,97409.46
2023-03-21T02:02:07.435Z,97410.64
2023-03-21T02:04:40.894Z,97410.80
2023-03-21T02:07:28.915Z,97408.48
2023-03-21T02:10:12.407Z,97408.41
2023-03-21T02:12:43.008Z,97406.80
2023-03-21T02:15:12.244Z,97407.47
2023-03-21T02:18:06.590Z,97409.05
2023-03-21T02:21:06.881Z,97408.95
2023-03-21T02:24:20.675Z,97404.50
2023-03-21T02:27:10.466Z,97404.95
2023-03-21T02:30:00.235Z,97403.51
2023-03-21T02:32:37.868Z,97404.15
2023-03-21T02:35:19.901Z,97403.05
2023-03-21T02:38:03.759Z,97404.36
2023-03-21T02:40:45.790Z,97406.35
2023-03-21T02:43:23.448Z,97410.94
2023-03-21T02:46:00.568Z,97406.59
2023-03-21T02:48:49.729Z,97409.18
2023-03-21T02:51:23.052Z,97408.13
2023-03-21T02:54:24.635Z,97411.28
2023-03-21T02:56:49.246Z,97409.48
2023-03-21T02:59:20.269Z,97409.56
2023-03-21T03:01:52.425Z,97411.44
2023-03-21T03:04:24.003Z,97408.42
2023-03-21T03:06:58.130Z,97408.25
2023-03-21T03:09:35.143Z,97407.42
2023-03-21T03:12:16.802Z,97408.48
2023-03-21T03:15:12.942Z,97414.77
2023-03-21T03:18:14.154Z,97410.30
2023-03-21T03:21:04.157Z,97407.55
2023-03-21T03:24:03.508Z,97410.21
2023-03-21T03:27:06.382Z,97412.87
2023-03-21T03:29:39.246Z,97408.52
2023-03-21T03:32:13.361Z,97407.81
2023-03-21T03:34:49.822Z,97408.66
2023-03-21T03:37:26.470Z,97405.64
2023-03-21T03:40:08.429Z,97404.18
2023-03-21T03:42:43.416Z,97403.77
2023-03-21T03:45:24.679Z,97401.24
2023-03-21T03:48:14.823Z,97402.18
2023-03-21T03:51:29.438Z,97401.06
2023-03-21T03:54:33.147Z,97403.46
2023-03-21T03:57:04.528Z,97400.65
2023-03-21T03:59:41.952Z,97402.04
2023-03-21T04:02:33.058Z,97400.86
2023-03-21T04:05:04.459Z,97397.95
2023-03-21T04:07:32.568Z,97397.11
2023-03-21T04:10:01.618Z,97397.45
2023-03-21T04:12:29.679Z,97398.20
2023-03-21T04:15:16.383Z,97397.36
2023-03-21T04:17:48.757Z,97401.75
2023-03-21T04:20:26.685Z,97401.27
2023-03-21T04:23:03.059Z,97405.39
2023-03-21T04:25:35.769Z,97406.51
2023-03-21T04:28:05.934Z,97408.85
2023-03-21T04:30:47.085Z,97410.08
2023-03-21T04:33:25.964Z,97409.15
2023-03-21T04:35:56.845Z,97407.45
2023-03-21T04:38:30.846Z,97409.08
2023-03-21T04:41:02.977Z,97408.95
2023-03-21T04:43:32.217Z,97404.86
2023-03-21T04:46:00.877Z,97408.80
2023-03-21T04:48:29.297Z,97411.20
2023-03-21T04:50:57.584Z,97409.62
2023-03-21T04:53:25.799Z,97412.58
2023-03-21T04:55:55.562Z,97410.18
2023-03-21T04:58:24.295Z,97414.07
2023-03-21T05:00:53.225Z,97415.32
2023-03-21T05:03:22.136Z,97419.70
2023-03-21T05:05:50.347Z,97418.84
2023-03-21T05:08:19.880Z,97417.98
2023-03-21T05:10:48.407Z,97418.52
2023-03-21T05:13:17.638Z,97422.21
2023-03-21T05:15:45.870Z,97421.70
2023-03-21T05:18:14.201Z,97424.19
2023-03-21T05:20:58.479Z,97421.22
2023-03-21T05:23:31.762Z,97422.05
2023-03-21T05:26:00.382Z,97424.93
2023-03-21T05:28:40.099Z,97427.63
2023-03-21T05:31:09.463Z,97431.23
2023-03-21T05:33:37.878Z,97432.54
2023-03-21T05:36:06.645Z,97432.09
2023-03-21T05:38:35.076Z,97432.48
2023-03-21T05:41:03.290Z,97430.59
2023-03-21T05:43:32.513Z,97431.00
2023-03-21T05:46:00.794Z,97435.59
2023-03-21T05:48:29.995Z,97434.45
2023-03-21T05:51:19.255Z,97434.68
2023-03-21T05:53:48.712Z,97435.06
2023-03-21T05:56:17.461Z,97434.58
2023-03-21T05:58:50.241Z,97436.23
2023-03-21T06:01:19.132Z,97438.43
2023-03-21T06:03:52.604Z,97437.63
2023-03-21T06:06:25.895Z,97437.00
2023-03-21T06:09:00.620Z,97438.15
2023-03-21T06:11:32.893Z,97435.98
2023-03-21T06:14:30.616Z,97434.13
2023-03-21T06:17:28.381Z,97433.34
2023-03-21T06:20:07.120Z,97433.80
2023-03-21T06:22:42.194Z,97435.97
2023-03-21T06:25:10.663Z,97433.21
2023-03-21T06:27:39.244Z,97433.28
2023-03-21T06:30:09.067Z,97435.81
2023-03-21T06:32:44.292Z,97432.39
2023-03-21T06:35:15.426Z,97433.39
2023-03-21T06:37:45.665Z,97437.65
2023-03-21T06:40:15.029Z,97438.77
2023-03-21T06:42:44.230Z,97439.39
2023-03-21T06:45:12.993Z,97440.49
2023-03-21T06:47:41.507Z,97435.65
2023-03-21T06:50:15.548Z,97435.32
2023-03-21T06:52:44.854Z,97434.48
2023-03-21T06:55:13.724Z,97436.08
2023-03-21T06:57:42.644Z,97439.07
2023-03-21T07:00:11.929Z,97438.16
2023-03-21T07:02:44.204Z,97441.24
2023-03-21T07:05:18.088Z,97446.34
2023-03-21T07:07:47.070Z,97443.70
2023-03-21T07:10:16.155Z,97444.89
2023-03-21T07:12:48.493Z,97440.94
2023-03-21T07:15:26.336Z,97440.88
2023-03-21T07:17:54.802Z,97445.05
2023-03-21T07:20:23.635Z,97443.21
2023-03-21T07:22:51.964Z,97443.51
2023-03-21T07:25:20.373Z,97440.84
2023-03-21T07:27:49.650Z,97438.36
2023-03-21T07:30:19.310Z,97441.02
2023-03-21T07:32:47.946Z,97441.43
2023-03-21T07:35:18.406Z,97435.05
2023-03-21T07:37:46.835Z,97432.52
2023-03-21T07:40:18.342Z,97431.06
2023-03-21T07:42:50.309Z,97432.77
2023-03-21T07:45:29.342Z,97430.11
2023-03-21T07:47:57.656Z,97427.70
2023-03-21T07:50:25.969Z,97424.22
2023-03-21T07:52:54.722Z,97423.19
2023-03-21T07:55:23.300Z,97420.70
2023-03-21T07:57:52.148Z,97421.08
2023-03-21T08:00:23.337Z,97418.48
2023-03-21T08:02:58.916Z,97422.11
2023-03-21T08:05:38.525Z,97422.39
2023-03-21T08:08:08.676Z,97420.27
2023-03-21T08:10:37.694Z,97415.34
2023-03-21T08:13:06.169Z,97411.70
2023-03-21T08:15:34.632Z,97410.67
2023-03-21T08:18:02.759Z,97405.13
2023-03-21T08:20:31.393Z,97403.10
2023-03-21T08:22:59.634Z,97405.40
2023-03-21T08:25:28.260Z,97405.52
2023-03-21T08:27:57.091Z,97403.99
2023-03-21T08:30:28.346Z,97404.67
2023-03-21T08:33:00.842Z,97403.97
2023-03-21T08:35:31.719Z,97403.80
2023-03-21T08:38:03.704Z,97402.95
2023-03-21T08:40:32.027Z,97400.11
2023-03-21T08:43:00.683Z,97402.35
2023-03-21T08:45:29.875Z,97399.05
2023-03-21T08:47:59.021Z,97402.40
2023-03-21T08:50:29.778Z,97396.55
2023-03-21T08:52:58.200Z,97394.16
2023-03-21T08:55:26.400Z,97391.88
2023-03-21T08:57:54.668Z,97393.30
2023-03-21T09:00:23.338Z,97398.19
2023-03-21T09:02:52.581Z,97397.10
2023-03-21T09:05:23.079Z,97398.67
2023-03-21T09:07:53.182Z,97398.38
2023-03-21T09:10:23.441Z,97395.79
2023-03-21T09:12:53.975Z,97396.25
2023-03-21T09:15:25.893Z,97395.46
2023-03-21T09:17:57.217Z,97398.04
2023-03-21T09:20:31.473Z,97392.52
2023-03-21T09:23:01.885Z,97389.04
2023-03-21T09:25:31.723Z,97391.77
2023-03-21T09:28:01.215Z,97392.80
2023-03-21T09:30:30.261Z,97393.05
2023-03-21T09:33:03.975Z,97390.08
2023-03-21T09:35:32.974Z,97387.83
2023-03-21T09:38:01.601Z,97386.36
2023-03-21T09:41:17.555Z,97389.45
2023-03-21T09:44:08.436Z,97390.33
2023-03-21T09:46:58.577Z,97391.20
2023-03-21T09:49:40.996Z,97391.13
2023-03-21T09:52:24.634Z,97387.96
2023-03-21T09:54:54.035Z,97388.85
2023-03-21T09:57:34.100Z,97387.95
2023-03-21T10:00:16.128Z,97388.27
2023-03-21T10:02:51.045Z,97392.59
2023-03-21T10:05:28.591Z,97391.98
2023-03-21T10:08:19.762Z,97387.46
2023-03-21T10:10:59.041Z,97386.70
2023-03-21T10:13:32.480Z,97387.64
2023-03-21T10:16:14.395Z,97386.12
2023-03-21T10:18:44.498Z,97380.86
2023-03-21T10:21:51.384Z,97378.23
2023-03-21T10:24:16.527Z,97376.63
2023-03-21T10:26:46.724Z,97374.25
2023-03-21T10:29:17.344Z,97372.83
2023-03-21T10:31:47.699Z,97371.38
2023-03-21T10:34:18.225Z,97367.71
2023-03-21T10:36:47.136Z,97368.72
2023-03-21T10:39:35.853Z,97367.08
2023-03-21T10:42:04.283Z,97367.05
2023-03-21T10:44:36.204Z,97369.63
2023-03-21T10:47:10.165Z,97368.59
2023-03-21T10:50:06.491Z,97360.98
2023-03-21T10:52:29.045Z,97357.40
2023-03-21T10:55:18.890Z,97355.01
2023-03-21T10:57:47.775Z,97354.49
2023-03-21T11:00:26.065Z,97357.77
2023-03-21T11:02:55.164Z,97354.33
2023-03-21T11:05:35.340Z,97357.29
2023-03-21T11:08:14.161Z,97358.82
2023-03-21T11:10:54.591Z,97356.46
2023-03-21T11:13:34.697Z,97355.08
2023-03-21T11:16:23.396Z,97355.98
2023-03-21T11:18:56.866Z,97352.42
2023-03-21T11:21:29.757Z,97350.02
2023-03-21T11:23:58.320Z,97347.92
2023-03-21T11:26:36.880Z,97344.13
2023-03-21T11:29:27.277Z,97344.14
2023-03-21T11:32:01.189Z,97338.17
2023-03-21T11:35:05.062Z,97332.90
2023-03-21T11:37:39.385Z,97328.80
2023-03-21T11:40:31.061Z,97321.02
2023-03-21T11:43:23.371Z,97313.11
2023-03-21T11:46:14.588Z,97306.98
2023-03-21T11:48:45.523Z,97308.07
2023-03-21T11:51:41.091Z,97303.12
2023-03-21T11:54:25.395Z,97299.36
2023-03-21T11:56:59.789Z,97292.12
2023-03-21T11:59:34.356Z,97285.52
2023-03-21T12:02:19.558Z,97284.58
2023-03-21T12:05:00.514Z,97281.69
2023-03-21T12:07:58.707Z,97276.85
2023-03-21T12:10:45.628Z,97275.95
2023-03-21T12:13:35.575Z,97274.47
2023-03-21T12:16:24.852Z,97271.69
2023-03-21T12:19:21.291Z,97272.65
2023-03-21T12:22:01.989Z,97268.66
2023-03-21T12:24:38.755Z,97266.07
2023-03-21T12:27:19.537Z,97260.59
2023-03-21T12:30:33.461Z,97261.35
2023-03-21T12:33:09.260Z,97268.67
2023-03-21T12:36:26.557Z,97273.00
2023-03-21T12:39:15.583Z,97289.17
2023-03-21T12:42:05.955Z,97306.91
2023-03-21T12:44:39.343Z,97309.11
2023-03-21T12:47:13.639Z,97336.04
2023-03-21T12:49:49.996Z,97349.16
2023-03-21T12:52:32.827Z,97353.01
2023-03-21T12:55:08.294Z,97361.09
2023-03-21T12:57:57.460Z,97369.67
2023-03-21T13:00:38.562Z,97371.11
2023-03-21T13:03:33.532Z,97372.38
2023-03-21T13:06:11.369Z,97358.34
2023-03-21T13:08:53.318Z,97349.09
2023-03-21T13:11:25.346Z,97337.52
2023-03-21T13:14:18.108Z,97327.95
2023-03-21T13:16:56.084Z,97306.02
2023-03-21T13:19:55.502Z,97287.85
2023-03-21T13:22:31.926Z,97286.73
2023-03-21T13:25:07.854Z,97294.29
2023-03-21T13:27:40.164Z,97301.59
2023-03-21T13:30:20.722Z,97304.84
2023-03-21T13:32:52.176Z,97304.77
2023-03-21T13:35:21.150Z,97304.55
2023-03-21T13:37:57.738Z,97304.56
2023-03-21T13:40:38.292Z,97304.71
2023-03-21T13:43:44.926Z,97304.84
2023-03-21T13:46:52.236Z,97302.26
2023-03-21T13:49:36.818Z,97297.92
2023-03-21T13:52:12.219Z,97301.65
2023-03-21T13:54:53.610Z,97306.46
2023-03-21T13:57:46.829Z,97312.35
2023-03-21T14:00:28.097Z,97313.05
2023-03-21T14:03:19.674Z,97309.36
2023-03-21T14:05:52.146Z,97303.86
2023-03-21T14:08:27.932Z,97301.37
2023-03-21T14:11:09.416Z,97293.92
2023-03-21T14:13:50.879Z,97285.91
2023-03-21T14:16:22.591Z,97277.91
2023-03-21T14:19:01.945Z,97269.65
2023-03-21T14:21:33.476Z,97266.91
2023-03-21T14:24:07.714Z,97263.52
2023-03-21T14:26:44.763Z,97264.38
2023-03-21T14:29:34.929Z,97259.44
2023-03-21T14:32:05.956Z,97251.11
2023-03-21T14:34:37.373Z,97244.02
2023-03-21T14:37:08.314Z,97242.64
2023-03-21T14:39:36.723Z,97239.05
2023-03-21T14:42:15.112Z,97240.88
2023-03-21T14:44:56.782Z,97241.06
2023-03-21T14:47:28.247Z,97245.73
2023-03-21T14:49:58.552Z,97246.38
2023-03-21T14:52:32.395Z,97246.69
2023-03-21T14:55:06.097Z,97252.23
2023-03-21T14:57:34.515Z,97253.10
2023-03-21T15:00:13.677Z,97254.13
2023-03-21T15:02:46.143Z,97256.88
2023-03-21T15:05:22.667Z,97255.30
2023-03-21T15:08:01.166Z,97251.65
2023-03-21T15:10:32.110Z,97247.84
2023-03-21T15:13:12.425Z,97248.67
2023-03-21T15:15:41.999Z,97249.75
2023-03-21T15:18:19.156Z,97249.27
2023-03-21T15:20:50.540Z,97253.90
2023-03-21T15:23:31.431Z,97255.11
2023-03-21T15:26:12.948Z,97254.26
2023-03-21T15:28:41.856Z,97257.75
2023-03-21T15:31:17.712Z,97258.20
2023-03-21T15:33:51.035Z,97263.81
2023-03-21T15:36:28.051Z,97269.21
2023-03-21T15:38:56.634Z,97270.84
2023-03-21T15:41:29.323Z,97270.16
2023-03-21T15:44:00.798Z,97265.65
2023-03-21T15:46:44.561Z,97264.20
2023-03-21T15:49:13.164Z,97264.23
2023-03-21T15:52:02.972Z,97272.04
2023-03-21T15:54:42.700Z,97269.91
2023-03-21T15:57:25.424Z,97267.34
2023-03-21T16:00:21.294Z,97266.17
2023-03-21T16:02:57.578Z,97260.66
2023-03-21T16:05:32.193Z,97258.88
2023-03-21T16:08:09.498Z,97260.27
2023-03-21T16:10:38.736Z,97261.07
2023-03-21T16:13:07.438Z,97258.98
2023-03-21T16:15:35.654Z,97262.16
2023-03-21T16:18:08.469Z,97258.16
2023-03-21T16:20:45.219Z,97257.61
2023-03-21T16:23:15.872Z,97255.80
2023-03-21T16:25:44.715Z,97255.77
2023-03-21T16:28:16.702Z,97258.78
2023-03-21T16:30:45.388Z,97261.80
2023-03-21T16:33:15.286Z,97262.41
2023-03-21T16:35:43.656Z,97260.74
2023-03-21T16:38:13.291Z,97262.59
2023-03-21T16:40:43.680Z,97265.61
2023-03-21T16:43:12.773Z,97266.19
2023-03-21T16:45:41.301Z,97272.34
2023-03-21T16:48:16.554Z,97273.41
2023-03-21T16:50:48.313Z,97278.15
2023-03-21T16:53:17.257Z,97280.30
2023-03-21T16:55:46.139Z,97282.05
2023-03-21T16:58:16.785Z,97282.23
2023-03-21T17:00:44.866Z,97281.20
2023-03-21T17:03:18.246Z,97282.23
2023-03-21T17:05:46.768Z,97283.62
2023-03-21T17:08:18.982Z,97284.98
2023-03-21T17:10:47.816Z,97286.41
2023-03-21T17:13:16.205Z,97288.67
2023-03-21T17:15:44.261Z,97288.20
2023-03-21T17:18:12.492Z,97292.59
2023-03-21T17:20:41.975Z,97301.74
2023-03-21T17:23:11.122Z,97304.48
2023-03-21T17:25:39.438Z,97308.11
2023-03-21T17:28:07.734Z,97311.06
2023-03-21T17:30:40.308Z,97314.02
2023-03-21T17:33:09.054Z,97315.09
2023-03-21T17:35:37.785Z,97317.41
2023-03-21T17:38:11.370Z,97323.41
2023-03-21T17:40:40.038Z,97325.55
2023-03-21T17:43:19.487Z,97325.41
2023-03-21T17:45:47.806Z,97327.89
2023-03-21T17:48:16.378Z,97330.98
2023-03-21T17:50:44.840Z,97337.49
2023-03-21T17:53:15.075Z,97344.38
2023-03-21T17:55:43.612Z,97349.94
2023-03-21T17:58:13.129Z,97354.66
2023-03-21T18:00:41.713Z,97360.45
2023-03-21T18:03:09.801Z,97357.77
2023-03-21T18:05:38.216Z,97361.55
2023-03-21T18:08:11.189Z,97364.55
2023-03-21T18:10:41.668Z,97363.25
2023-03-21T18:13:10.972Z,97362.95
2023-03-21T18:15:44.891Z,97363.66
2023-03-21T18:18:14.889Z,97368.66
2023-03-21T18:20:54.025Z,97370.27
2023-03-21T18:23:23.343Z,97374.11
2023-03-21T18:25:53.042Z,97371.98
2023-03-21T18:28:22.329Z,97370.89
2023-03-21T18:31:08.206Z,97368.26
2023-03-21T18:33:40.452Z,97366.33
2023-03-21T18:36:10.265Z,97368.64
2023-03-21T18:38:39.112Z,97368.51
2023-03-21T18:41:10.724Z,97373.10
2023-03-21T18:44:01.310Z,97377.17
2023-03-21T18:46:27.474Z,97379.97
2023-03-21T18:48:57.242Z,97379.07
2023-03-21T18:51:25.766Z,97377.95
2023-03-21T18:53:54.746Z,97379.80
2023-03-21T18:57:13.135Z,97378.52
2023-03-21T18:59:11.966Z,97377.40
2023-03-21T19:01:40.157Z,97381.70
2023-03-21T19:04:21.374Z,97379.11
2023-03-21T19:06:53.205Z,97378.77
2023-03-21T19:09:29.130Z,97378.67
2023-03-21T19:12:01.515Z,97378.73
2023-03-21T19:14:30.738Z,97378.08
2023-03-21T19:17:55.872Z,97378.17
2023-03-21T19:19:48.060Z,97376.94
2023-03-21T19:22:16.389Z,97373.98
2023-03-21T19:24:44.913Z,97372.62
2023-03-21T19:27:13.455Z,97372.50
2023-03-21T19:29:42.051Z,97376.27
2023-03-21T19:32:10.312Z,97376.55
2023-03-21T19:34:38.658Z,97380.46
2023-03-21T19:37:07.325Z,97380.98
2023-03-21T19:39:35.562Z,97381.77
2023-03-21T19:42:15.953Z,97379.77
2023-03-21T19:44:45.740Z,97378.12
2023-03-21T19:47:13.898Z,97377.83
2023-03-21T19:50:30.680Z,97376.65
2023-03-21T19:52:32.073Z,97376.34
2023-03-21T19:55:00.151Z,97378.41
2023-03-21T19:57:28.105Z,97375.04
2023-03-21T19:59:56.456Z,97377.20
2023-03-21T20:06:09.556Z,97380.71
2023-03-21T20:09:05.445Z,97376.98
2023-03-21T20:11:26.297Z,97373.38
2023-03-21T20:13:54.271Z,97377.23
2023-03-21T20:16:22.366Z,97376.50
2023-03-21T20:18:52.558Z,97381.58
2023-03-21T20:21:25.417Z,97381.91
2023-03-21T20:23:53.941Z,97380.27
2023-03-21T20:26:21.875Z,97382.08
2023-03-21T20:29:27.962Z,97381.65
2023-03-21T20:31:44.846Z,97385.27
2023-03-21T20:34:13.340Z,97380.81
2023-03-21T20:36:43.511Z,97382.45
2023-03-21T20:39:11.866Z,97380.73
2023-03-21T20:41:39.977Z,97379.04
2023-03-21T20:46:56.855Z,97383.50
2023-03-21T20:49:26.146Z,97380.36
2023-03-21T20:54:44.412Z,97379.52
2023-03-21T20:57:12.674Z,97382.52
2023-03-21T20:59:46.798Z,97381.83
2023-03-21T21:02:15.272Z,97380.10
2023-03-21T21:04:59.978Z,97384.48
2023-03-21T21:07:31.162Z,97383.19
2023-03-21T21:09:59.166Z,97381.67
2023-03-21T21:12:28.696Z,97379.82
2023-03-21T21:14:56.906Z,97378.64
2023-03-21T21:18:01.584Z,97377.96
2023-03-21T21:20:17.004Z,97377.89
2023-03-21T21:22:58.655Z,97373.89
2023-03-21T21:25:31.972Z,97375.00
2023-03-21T21:28:02.029Z,97381.30
2023-03-21T21:30:32.748Z,97383.23
2023-03-21T21:33:01.104Z,97383.40
2023-03-21T21:35:29.432Z,97384.08
2023-03-21T21:37:57.383Z,97382.80
2023-03-21T21:40:25.688Z,97380.45
2023-03-21T21:42:53.862Z,97381.41
2023-03-21T21:45:21.960Z,97383.06
2023-03-21T21:47:50.248Z,97385.04
2023-03-21T21:50:19.322Z,97389.93
2023-03-21T21:52:54.417Z,97391.34
2023-03-21T21:55:22.966Z,97394.66
2023-03-21T21:57:51.036Z,97396.43
2023-03-21T22:00:20.234Z,97401.17
2023-03-21T22:02:48.314Z,97402.95
2023-03-21T22:05:16.581Z,97405.61
2023-03-21T22:07:45.999Z,97402.70
2023-03-21T22:10:15.027Z,97405.19
2023-03-21T22:12:43.233Z,97404.16
2023-03-21T22:15:12.179Z,97405.58
2023-03-21T22:17:41.176Z,97407.70
2023-03-21T22:20:12.136Z,97409.41
2023-03-21T22:22:40.851Z,97407.70
2023-03-21T22:25:11.784Z,97406.73
2023-03-21T22:27:40.937Z,97410.52
2023-03-21T22:30:14.045Z,97409.23
2023-03-21T22:32:42.336Z,97408.08
2023-03-21T22:35:11.032Z,97410.21
2023-03-21T22:37:41.514Z,97411.10
2023-03-21T22:40:13.198Z,97414.77
2023-03-21T22:42:42.551Z,97415.20
2023-03-21T22:45:16.223Z,97418.58
2023-03-21T22:47:44.311Z,97424.16
2023-03-21T22:50:12.475Z,97428.01
2023-03-21T22:52:40.547Z,97424.02
2023-03-21T22:55:10.202Z,97422.26
2023-03-21T22:57:38.284Z,97422.91
2023-03-21T23:00:13.801Z,97425.82
2023-03-21T23:02:42.583Z,97422.45
2023-03-21T23:05:11.691Z,97418.97
2023-03-21T23:07:39.783Z,97417.77
2023-03-21T23:10:08.987Z,97417.36
2023-03-21T23:12:37.662Z,97417.73
2023-03-21T23:15:07.932Z,97419.70
2023-03-21T23:17:36.122Z,97425.45
2023-03-21T23:20:11.414Z,97424.60
2023-03-21T23:22:39.563Z,97424.81
2023-03-21T23:25:07.957Z,97423.49
2023-03-21T23:27:36.255Z,97422.16
2023-03-21T23:30:06.815Z,97423.94
2023-03-21T23:32:34.777Z,97426.05
2023-03-21T23:35:02.812Z,97429.35
2023-03-21T23:37:30.741Z,97426.55
2023-03-21T23:39:58.724Z,97423.61
2023-03-21T23:42:29.334Z,97424.48
2023-03-21T23:44:57.307Z,97428.61
2023-03-21T23:47:25.374Z,97424.91
2023-03-21T23:49:53.384Z,97426.48
2023-03-21T23:52:22.070Z,97430.63
2023-03-21T23:54:50.160Z,97428.09
2023-03-21T23:57:18.763Z,97427.13
2023-03-21T23:59:49.709Z,97425.19
